createdAt,value
2022-09-12T00:01:53.471Z,0.82
2022-09-12T00:04:20.521Z,0.77
2022-09-12T00:06:47.474Z,0.70
2022-09-12T00:09:15.315Z,1.02
2022-09-12T00:11:45.226Z,0.70
2022-09-12T00:16:40.702Z,0.80
2022-09-12T00:19:08.690Z,0.65
2022-09-12T00:21:37.485Z,0.70
2022-09-12T00:24:05.026Z,0.60
2022-09-12T00:26:32.678Z,2.53
2022-09-12T00:28:59.597Z,0.63
2022-09-12T00:31:27.870Z,0.80
2022-09-12T00:33:58.826Z,0.80
2022-09-12T00:36:26.681Z,0.75
2022-09-12T00:38:54.771Z,0.68
2022-09-12T00:41:41.891Z,0.50
2022-09-12T00:44:23.942Z,0.85
2022-09-12T00:47:06.090Z,0.65
2022-09-12T00:49:54.850Z,0.60
2022-09-12T00:52:32.875Z,0.90
2022-09-12T00:55:06.008Z,0.60
2022-09-12T00:57:41.535Z,0.80
2022-09-12T01:00:20.788Z,0.60
2022-09-12T01:02:54.324Z,0.60
2022-09-12T01:05:23.450Z,0.63
2022-09-12T01:07:51.796Z,0.70
2022-09-12T01:10:19.644Z,0.70
2022-09-12T01:12:47.660Z,0.75
2022-09-12T01:15:14.755Z,0.52
2022-09-12T01:17:53.644Z,2.50
2022-09-12T01:20:33.176Z,0.73
2022-09-12T01:23:15.052Z,0.55
2022-09-12T01:26:11.363Z,0.70
2022-09-12T01:29:07.619Z,0.80
2022-09-12T01:31:42.534Z,0.60
2022-09-12T01:34:23.095Z,0.60
2022-09-12T01:36:51.504Z,0.63
2022-09-12T01:39:27.958Z,0.60
2022-09-12T01:42:12.884Z,0.70
2022-09-12T01:45:04.527Z,0.70
2022-09-12T01:47:41.761Z,0.80
2022-09-12T01:50:16.559Z,0.80
2022-09-12T01:52:55.791Z,0.70
2022-09-12T01:55:51.704Z,0.80
2022-09-12T01:58:25.219Z,0.80
2022-09-12T02:01:07.988Z,0.80
2022-09-12T02:04:00.416Z,0.93
2022-09-12T02:06:37.530Z,0.88
2022-09-12T02:09:17.025Z,1.00
2022-09-12T02:11:46.344Z,1.00
2022-09-12T02:14:19.297Z,0.98
2022-09-12T02:17:07.192Z,1.10
2022-09-12T02:19:40.488Z,1.00
2022-09-12T02:22:12.097Z,1.05
2022-09-12T02:24:42.390Z,0.88
2022-09-12T02:27:12.315Z,1.20
2022-09-12T02:32:32.817Z,1.05
2022-09-12T02:35:08.738Z,1.90
2022-09-12T02:37:44.551Z,2.05
2022-09-12T02:40:12.361Z,1.98
2022-09-12T02:42:39.313Z,1.48
2022-09-12T02:45:07.251Z,1.42
2022-09-12T02:47:44.068Z,1.30
2022-09-12T02:50:11.234Z,1.33
2022-09-12T02:52:38.895Z,1.10
2022-09-12T02:55:06.834Z,1.02
2022-09-12T02:57:33.760Z,0.90
2022-09-12T03:00:02.107Z,0.80
2022-09-12T03:02:33.112Z,0.80
2022-09-12T03:05:12.731Z,0.88
2022-09-12T03:07:57.596Z,0.77
2022-09-12T03:10:52.782Z,0.60
2022-09-12T03:13:44.585Z,0.50
2022-09-12T03:16:35.298Z,0.60
2022-09-12T03:19:26.362Z,0.75
2022-09-12T03:22:04.547Z,0.50
2022-09-12T03:24:40.282Z,0.50
2022-09-12T03:27:07.137Z,0.50
2022-09-12T03:29:34.699Z,0.50
2022-09-12T03:32:01.703Z,0.43
2022-09-12T03:34:29.067Z,0.30
2022-09-12T03:36:56.556Z,0.50
2022-09-12T03:39:24.634Z,0.43
2022-09-12T03:41:52.289Z,0.60
2022-09-12T03:44:19.668Z,0.60
2022-09-12T03:46:46.730Z,0.60
2022-09-12T03:49:13.730Z,0.70
2022-09-12T03:51:40.713Z,0.40
2022-09-12T03:54:08.363Z,0.50
2022-09-12T03:56:37.325Z,0.40
2022-09-12T03:59:07.766Z,0.60
2022-09-12T04:01:35.067Z,0.50
2022-09-12T04:04:02.239Z,0.40
2022-09-12T04:06:29.824Z,0.60
2022-09-12T04:08:56.892Z,0.50
2022-09-12T04:11:23.958Z,0.73
2022-09-12T04:13:52.286Z,0.70
2022-09-12T04:16:19.619Z,0.80
2022-09-12T04:18:47.001Z,1.00
2022-09-12T04:21:21.840Z,0.80
2022-09-12T04:23:51.711Z,0.90
2022-09-12T04:26:19.876Z,1.00
2022-09-12T04:28:47.824Z,1.00
2022-09-12T04:31:18.201Z,1.05
2022-09-12T04:33:45.767Z,1.55
2022-09-12T04:36:16.985Z,1.10
2022-09-12T04:38:46.355Z,1.30
2022-09-12T04:41:22.161Z,0.88
2022-09-12T04:43:53.887Z,1.00
2022-09-12T04:46:22.624Z,0.75
2022-09-12T04:48:54.625Z,1.20
2022-09-12T04:51:32.750Z,1.00
2022-09-12T04:54:02.180Z,0.77
2022-09-12T04:56:30.002Z,1.00
2022-09-12T04:58:59.606Z,0.70
2022-09-12T05:01:28.216Z,0.88
2022-09-12T05:03:56.340Z,0.98
2022-09-12T05:06:29.172Z,1.10
2022-09-12T05:08:58.632Z,1.10
2022-09-12T05:11:41.311Z,1.10
2022-09-12T05:14:15.052Z,0.95
2022-09-12T05:16:44.213Z,1.10
2022-09-12T05:19:12.982Z,1.20
2022-09-12T05:21:40.476Z,1.10
2022-09-12T05:24:07.555Z,0.90
2022-09-12T05:26:34.478Z,0.80
2022-09-12T05:29:01.407Z,0.90
2022-09-12T05:31:28.889Z,1.10
2022-09-12T05:33:56.631Z,1.30
2022-09-12T05:36:26.631Z,1.30
2022-09-12T05:41:25.241Z,1.30
2022-09-12T05:44:00.125Z,1.20
2022-09-12T05:46:30.175Z,1.77
2022-09-12T05:48:58.376Z,1.08
2022-09-12T05:51:28.182Z,1.00
2022-09-12T05:54:00.099Z,1.50
2022-09-12T05:56:29.175Z,1.27
2022-09-12T05:59:02.579Z,1.10
2022-09-12T06:01:31.611Z,1.17
2022-09-12T06:04:01.012Z,1.37
2022-09-12T06:06:29.909Z,1.38
2022-09-12T06:08:59.865Z,1.15
2022-09-12T06:13:57.496Z,1.10
2022-09-12T06:16:29.756Z,1.20
2022-09-12T06:18:59.190Z,1.17
2022-09-12T06:21:27.059Z,1.23
2022-09-12T06:24:01.106Z,1.23
2022-09-12T06:26:29.335Z,2.08
2022-09-12T06:28:57.933Z,1.17
2022-09-12T06:31:27.998Z,1.25
2022-09-12T06:33:56.260Z,1.25
2022-09-12T06:36:28.927Z,1.10
2022-09-12T06:38:58.033Z,1.52
2022-09-12T06:41:25.839Z,1.70
2022-09-12T06:43:53.682Z,1.10
2022-09-12T06:46:21.214Z,1.20
2022-09-12T06:48:48.664Z,1.30
2022-09-12T06:51:18.083Z,1.58
2022-09-12T06:53:46.423Z,1.65
2022-09-12T06:56:16.857Z,0.98
2022-09-12T06:58:44.221Z,1.02
2022-09-12T07:01:17.407Z,1.10
2022-09-12T07:03:49.027Z,0.90
2022-09-12T07:06:18.355Z,0.93
2022-09-12T07:08:45.969Z,1.20
2022-09-12T07:11:17.802Z,1.20
2022-09-12T07:13:47.588Z,0.85
2022-09-12T07:16:19.177Z,0.90
2022-09-12T07:18:51.724Z,0.80
2022-09-12T07:21:19.117Z,1.15
2022-09-12T07:23:46.280Z,0.65
2022-09-12T07:26:15.083Z,0.60
2022-09-12T07:28:42.898Z,0.70
2022-09-12T07:31:16.191Z,0.70
2022-09-12T07:33:44.134Z,0.60
2022-09-12T07:36:14.098Z,0.68
2022-09-12T07:41:12.823Z,1.30
2022-09-12T07:43:39.957Z,0.80
2022-09-12T07:46:07.989Z,0.60
2022-09-12T07:48:35.201Z,0.73
2022-09-12T07:51:04.702Z,0.70
2022-09-12T07:53:34.478Z,0.70
2022-09-12T07:56:03.223Z,1.30
2022-09-12T07:58:31.335Z,0.70
2022-09-12T08:01:06.245Z,1.20
2022-09-12T08:03:33.267Z,0.63
2022-09-12T08:06:11.834Z,0.65
2022-09-12T08:08:38.989Z,0.63
2022-09-12T08:11:09.218Z,0.60
2022-09-12T08:13:38.253Z,0.60
2022-09-12T08:16:08.115Z,0.50
2022-09-12T08:21:05.475Z,0.80
2022-09-12T08:23:33.095Z,0.50
2022-09-12T08:26:05.928Z,0.90
2022-09-12T08:28:35.370Z,0.80
2022-09-12T08:31:07.986Z,0.60
2022-09-12T08:33:35.318Z,0.50
2022-09-12T08:36:22.719Z,0.50
2022-09-12T08:38:57.374Z,0.82
2022-09-12T08:41:40.075Z,0.80
2022-09-12T08:44:26.587Z,0.88
2022-09-12T08:47:05.914Z,0.60
2022-09-12T08:49:54.206Z,1.23
2022-09-12T08:52:27.808Z,0.60
2022-09-12T08:54:56.425Z,0.50
2022-09-12T08:57:24.441Z,0.50
2022-09-12T08:59:53.209Z,0.68
2022-09-12T09:02:20.873Z,0.50
2022-09-12T09:04:52.738Z,0.50
2022-09-12T09:07:31.676Z,0.70
2022-09-12T09:10:01.751Z,0.70
2022-09-12T09:12:50.404Z,0.50
2022-09-12T09:16:00.319Z,0.40
2022-09-12T09:21:09.503Z,0.50
2022-09-12T09:23:44.742Z,0.77
2022-09-12T09:26:15.792Z,0.90
2022-09-12T09:28:57.741Z,0.90
2022-09-12T09:31:29.515Z,0.73
2022-09-12T09:33:57.009Z,1.20
2022-09-12T09:36:44.212Z,0.60
2022-09-12T09:39:25.993Z,0.50
2022-09-12T09:42:22.995Z,0.43
2022-09-12T09:44:54.437Z,0.80
2022-09-12T09:47:21.430Z,0.73
2022-09-12T09:49:48.478Z,0.50
2022-09-12T09:52:19.189Z,0.73
2022-09-12T09:54:55.261Z,0.93
2022-09-12T09:57:37.246Z,0.80
2022-09-12T10:00:22.732Z,0.65
2022-09-12T10:03:13.789Z,1.00
2022-09-12T10:05:53.094Z,0.82
2022-09-12T10:08:31.864Z,1.73
2022-09-12T10:11:01.057Z,0.60
2022-09-12T10:13:36.105Z,1.10
2022-09-12T10:16:19.085Z,0.98
2022-09-12T10:18:46.550Z,0.77
2022-09-12T10:21:17.927Z,0.77
2022-09-12T10:23:46.615Z,0.68
2022-09-12T10:26:16.567Z,0.70
2022-09-12T10:31:17.288Z,0.70
2022-09-12T10:33:47.354Z,0.65
2022-09-12T10:36:16.342Z,0.93
2022-09-12T10:39:00.706Z,0.80
2022-09-12T10:41:39.297Z,0.70
2022-09-12T10:44:16.489Z,0.85
2022-09-12T10:46:43.495Z,1.10
2022-09-12T10:49:40.176Z,0.90
2022-09-12T10:52:21.615Z,0.80
2022-09-12T10:54:48.763Z,0.70
2022-09-12T10:57:34.985Z,1.00
2022-09-12T11:00:17.163Z,0.98
2022-09-12T11:03:13.801Z,0.70
2022-09-12T11:05:52.808Z,1.33
2022-09-12T11:09:06.379Z,0.90
2022-09-12T11:11:57.497Z,1.00
2022-09-12T11:14:35.217Z,1.13
2022-09-12T11:17:24.411Z,1.05
2022-09-12T11:20:27.419Z,1.25
2022-09-12T11:23:06.098Z,0.65
2022-09-12T11:25:46.511Z,0.80
2022-09-12T11:28:37.613Z,0.93
2022-09-12T11:31:13.339Z,1.45
2022-09-12T11:33:54.962Z,1.25
2022-09-12T11:36:47.794Z,1.30
2022-09-12T11:39:52.281Z,1.10
2022-09-12T11:42:31.483Z,0.63
2022-09-12T11:45:08.113Z,1.02
2022-09-12T11:47:36.546Z,0.90
2022-09-12T11:50:15.063Z,1.00
2022-09-12T11:52:42.010Z,0.80
2022-09-12T11:55:17.269Z,7.43
2022-09-12T11:57:55.930Z,1.20
2022-09-12T12:00:31.225Z,1.38
2022-09-12T12:03:04.072Z,0.80
2022-09-12T12:05:43.124Z,0.90
2022-09-12T12:08:12.327Z,0.90
2022-09-12T12:10:44.376Z,1.27
2022-09-12T12:13:39.471Z,0.65
2022-09-12T12:16:24.763Z,1.13
2022-09-12T12:19:00.361Z,1.30
2022-09-12T12:21:34.742Z,1.00
2022-09-12T12:24:10.564Z,0.90
2022-09-12T12:26:43.262Z,1.02
2022-09-12T12:29:22.219Z,1.08
2022-09-12T12:32:04.250Z,1.10
2022-09-12T12:34:32.476Z,1.30
2022-09-12T12:37:20.219Z,0.90
2022-09-12T12:39:48.321Z,1.10
2022-09-12T12:42:36.243Z,0.70
2022-09-12T12:45:23.321Z,0.95
2022-09-12T12:47:58.289Z,1.17
2022-09-12T12:50:28.463Z,2.33
2022-09-12T12:53:18.183Z,0.80
2022-09-12T12:55:45.070Z,0.88
2022-09-12T12:58:39.564Z,1.10
2022-09-12T13:01:21.442Z,0.80
2022-09-12T13:03:58.038Z,0.80
2022-09-12T13:06:44.603Z,1.00
2022-09-12T13:09:25.401Z,1.00
2022-09-12T13:12:04.295Z,0.80
2022-09-12T13:14:43.205Z,0.90
2022-09-12T13:17:32.143Z,0.60
2022-09-12T13:20:30.117Z,0.73
2022-09-12T13:22:58.218Z,0.63
2022-09-12T13:25:27.283Z,0.60
2022-09-12T13:28:02.619Z,0.67
2022-09-12T13:30:32.854Z,0.70
2022-09-12T13:33:16.311Z,0.90
2022-09-12T13:36:11.298Z,1.00
2022-09-12T13:38:38.458Z,1.40
2022-09-12T13:41:36.276Z,1.50
2022-09-12T13:44:04.320Z,1.70
2022-09-12T13:46:34.194Z,1.10
2022-09-12T13:51:31.419Z,1.00
2022-09-12T13:54:02.993Z,1.45
2022-09-12T13:56:30.029Z,1.20
2022-09-12T13:58:59.067Z,1.52
2022-09-12T14:01:38.751Z,1.23
2022-09-12T14:04:36.981Z,1.10
2022-09-12T14:07:13.060Z,1.38
2022-09-12T14:09:42.873Z,1.30
2022-09-12T14:12:43.602Z,1.08
2022-09-12T14:15:26.102Z,1.30
2022-09-12T14:17:57.804Z,1.42
2022-09-12T14:20:26.039Z,1.10
2022-09-12T14:22:53.454Z,1.25
2022-09-12T14:25:24.617Z,1.92
2022-09-12T14:27:56.301Z,1.25
2022-09-12T14:30:27.958Z,1.40
2022-09-12T14:33:10.089Z,1.13
2022-09-12T14:35:44.077Z,1.15
2022-09-12T14:38:24.924Z,1.45
2022-09-12T14:40:59.823Z,0.98
2022-09-12T14:43:36.013Z,1.20
2022-09-12T14:46:14.761Z,1.00
2022-09-12T14:48:49.336Z,0.90
2022-09-12T14:51:25.155Z,1.20
2022-09-12T14:53:52.075Z,1.10
2022-09-12T14:56:22.698Z,1.48
2022-09-12T14:58:50.444Z,1.23
2022-09-12T15:01:24.143Z,1.00
2022-09-12T15:03:54.098Z,1.00
2022-09-12T15:06:27.861Z,0.90
2022-09-12T15:08:56.971Z,1.10
2022-09-12T15:11:24.259Z,1.50
2022-09-12T15:13:51.691Z,1.17
2022-09-12T15:16:18.651Z,1.25
2022-09-12T15:18:45.547Z,1.67
2022-09-12T15:21:17.057Z,1.45
2022-09-12T15:23:51.102Z,1.02
2022-09-12T15:26:27.554Z,1.40
2022-09-12T15:28:54.419Z,1.15
2022-09-12T15:31:28.747Z,1.50
2022-09-12T15:33:59.282Z,1.70
2022-09-12T15:36:27.192Z,1.10
2022-09-12T15:38:54.673Z,1.20
2022-09-12T15:41:41.962Z,1.30
2022-09-12T15:44:12.654Z,1.08
2022-09-12T15:46:39.687Z,1.30
2022-09-12T15:49:10.830Z,1.70
2022-09-12T15:51:38.129Z,1.65
2022-09-12T15:54:05.222Z,1.33
2022-09-12T15:56:33.915Z,1.27
2022-09-12T15:59:00.828Z,1.52
2022-09-12T16:01:29.405Z,1.83
2022-09-12T16:03:57.136Z,1.50
2022-09-12T16:06:25.406Z,3.42
2022-09-12T16:08:52.534Z,1.80
2022-09-12T16:11:24.683Z,1.90
2022-09-12T16:13:56.900Z,1.73
2022-09-12T16:16:23.950Z,2.10
2022-09-12T16:18:52.253Z,1.65
2022-09-12T16:21:19.345Z,2.28
2022-09-12T16:23:49.004Z,2.15
2022-09-12T16:26:17.504Z,1.67
2022-09-12T16:28:44.699Z,1.58
2022-09-12T16:31:14.811Z,1.30
2022-09-12T16:33:42.981Z,1.27
2022-09-12T16:36:13.954Z,1.33
2022-09-12T16:38:53.579Z,1.20
2022-09-12T16:41:26.767Z,1.48
2022-09-12T16:43:56.748Z,1.58
2022-09-12T16:48:58.492Z,2.85
2022-09-12T16:51:29.222Z,2.30
2022-09-12T16:54:00.611Z,1.90
2022-09-12T16:56:28.919Z,1.80
2022-09-12T16:58:57.767Z,1.65
2022-09-12T17:01:27.029Z,1.70
2022-09-12T17:03:56.636Z,1.60
2022-09-12T17:06:25.325Z,1.40
2022-09-12T17:08:55.161Z,1.42
2022-09-12T17:11:28.973Z,1.60
2022-09-12T17:14:04.968Z,1.73
2022-09-12T17:16:34.803Z,1.80
2022-09-12T17:19:05.766Z,1.90
2022-09-12T17:21:33.519Z,1.48
2022-09-12T17:24:00.506Z,1.60
2022-09-12T17:26:27.447Z,2.00
2022-09-12T17:28:55.395Z,2.15
2022-09-12T17:31:22.414Z,2.25
2022-09-12T17:33:49.650Z,2.30
2022-09-12T17:36:18.489Z,2.17
2022-09-12T17:38:46.209Z,2.47
2022-09-12T17:41:18.874Z,2.60
2022-09-12T17:43:51.391Z,2.42
2022-09-12T17:46:19.533Z,2.28
2022-09-12T17:48:52.603Z,2.40
2022-09-12T17:51:20.336Z,2.92
2022-09-12T17:53:47.613Z,2.70
2022-09-12T17:56:15.705Z,2.78
2022-09-12T17:58:43.557Z,2.90
2022-09-12T18:01:33.104Z,2.92
2022-09-12T18:04:01.890Z,2.92
2022-09-12T18:06:32.085Z,3.15
2022-09-12T18:09:06.592Z,3.65
2022-09-12T18:11:36.294Z,3.00
2022-09-12T18:14:03.697Z,2.95
2022-09-12T18:16:32.339Z,3.28
2022-09-12T18:19:01.679Z,2.70
2022-09-12T18:21:30.777Z,2.92
2022-09-12T18:23:59.535Z,3.63
2022-09-12T18:26:28.482Z,2.47
2022-09-12T18:28:55.931Z,2.60
2022-09-12T18:31:26.450Z,2.75
2022-09-12T18:33:53.595Z,2.67
2022-09-12T18:36:21.313Z,2.60
2022-09-12T18:38:51.103Z,2.63
2022-09-12T18:41:20.554Z,3.53
2022-09-12T18:43:48.198Z,2.70
2022-09-12T18:46:20.328Z,2.53
2022-09-12T18:48:47.530Z,3.40
2022-09-12T18:51:21.764Z,3.10
2022-09-12T18:54:01.446Z,3.22
2022-09-12T18:56:34.483Z,4.13
2022-09-12T18:59:04.598Z,2.92
2022-09-12T19:01:35.007Z,3.38
2022-09-12T19:04:05.071Z,3.38
2022-09-12T19:06:35.320Z,3.08
2022-09-12T19:09:07.379Z,3.10
2022-09-12T19:11:39.777Z,3.40
2022-09-12T19:14:09.114Z,3.35
2022-09-12T19:16:36.850Z,3.47
2022-09-12T19:19:05.111Z,3.45
2022-09-12T19:21:33.117Z,3.25
2022-09-12T19:24:05.621Z,3.50
2022-09-12T19:26:33.604Z,3.38
2022-09-12T19:29:02.635Z,3.47
2022-09-12T19:31:32.764Z,3.43
2022-09-12T19:34:02.881Z,3.25
2022-09-12T19:36:46.708Z,3.15
2022-09-12T19:39:17.795Z,3.13
2022-09-12T19:41:45.865Z,3.05
2022-09-12T19:44:13.108Z,3.28
2022-09-12T19:46:40.584Z,3.45
2022-09-12T19:49:07.797Z,3.65
2022-09-12T19:51:34.674Z,3.92
2022-09-12T19:54:01.594Z,3.28
2022-09-12T19:56:30.398Z,3.17
2022-09-12T19:58:57.690Z,3.10
2022-09-12T20:01:28.609Z,3.10
2022-09-12T20:03:56.769Z,3.50
2022-09-12T20:06:25.219Z,3.50
2022-09-12T20:08:52.076Z,3.45
2022-09-12T20:11:21.039Z,8.23
2022-09-12T20:13:48.371Z,2.65
2022-09-12T20:16:25.434Z,2.70
2022-09-12T20:18:55.947Z,2.88
2022-09-12T20:21:25.840Z,3.08
2022-09-12T20:26:20.644Z,2.92
2022-09-12T20:28:50.863Z,3.00
2022-09-12T20:31:19.548Z,3.13
2022-09-12T20:33:51.646Z,3.30
2022-09-12T20:36:20.969Z,3.20
2022-09-12T20:38:53.215Z,3.38
2022-09-12T20:41:21.318Z,3.17
2022-09-12T20:43:52.603Z,3.67
2022-09-12T20:46:22.266Z,3.92
2022-09-12T20:48:50.672Z,3.35
2022-09-12T20:51:18.255Z,4.05
2022-09-12T20:53:45.479Z,3.45
2022-09-12T20:56:12.406Z,3.30
2022-09-12T20:58:43.163Z,3.28
2022-09-12T21:01:16.123Z,3.67
2022-09-12T21:03:44.334Z,3.60
2022-09-12T21:06:18.775Z,4.00
2022-09-12T21:08:47.255Z,3.83
2022-09-12T21:11:17.561Z,3.47
2022-09-12T21:13:44.388Z,3.50
2022-09-12T21:16:12.927Z,3.75
2022-09-12T21:18:41.250Z,4.10
2022-09-12T21:21:09.571Z,3.45
2022-09-12T21:23:36.500Z,3.42
2022-09-12T21:26:04.343Z,3.15
2022-09-12T21:28:31.406Z,3.08
2022-09-12T21:30:58.451Z,3.45
2022-09-12T21:33:25.878Z,3.50
2022-09-12T21:35:54.774Z,3.17
2022-09-12T21:38:21.677Z,2.97
2022-09-12T21:40:48.760Z,3.50
2022-09-12T21:43:15.681Z,3.17
2022-09-12T21:45:42.637Z,3.33
2022-09-12T21:48:10.076Z,3.38
2022-09-12T21:50:36.984Z,3.78
2022-09-12T21:53:03.906Z,3.97
2022-09-12T21:55:31.260Z,4.32
2022-09-12T21:57:58.163Z,3.72
2022-09-12T22:00:25.073Z,3.00
2022-09-12T22:02:52.638Z,3.08
2022-09-12T22:05:21.389Z,3.60
2022-09-12T22:07:48.321Z,3.25
2022-09-12T22:10:15.349Z,3.80
2022-09-12T22:12:46.081Z,3.55
2022-09-12T22:15:38.910Z,3.53
2022-09-12T22:18:00.968Z,3.35
2022-09-12T22:20:27.905Z,4.45
2022-09-12T22:23:13.345Z,3.78
2022-09-12T22:25:40.574Z,3.60
2022-09-12T22:28:07.536Z,3.90
2022-09-12T22:30:34.508Z,3.33
2022-09-12T22:33:01.588Z,3.67
2022-09-12T22:35:28.503Z,3.90
2022-09-12T22:37:55.433Z,3.40
2022-09-12T22:40:22.424Z,3.75
2022-09-12T22:42:52.384Z,3.72
2022-09-12T22:47:47.332Z,3.58
2022-09-12T22:50:14.643Z,3.88
2022-09-12T22:52:41.758Z,3.75
2022-09-12T22:55:09.819Z,3.53
2022-09-12T22:57:37.492Z,3.40
2022-09-12T23:00:08.373Z,3.65
2022-09-12T23:02:35.287Z,3.88
2022-09-12T23:05:02.695Z,3.33
2022-09-12T23:07:29.729Z,3.70
2022-09-12T23:09:57.019Z,3.92
2022-09-12T23:12:23.967Z,3.83
2022-09-12T23:14:50.874Z,4.25
2022-09-12T23:17:17.798Z,4.28
2022-09-12T23:19:48.551Z,4.20
2022-09-12T23:22:15.424Z,3.88
2022-09-12T23:24:42.311Z,4.00
2022-09-12T23:27:09.235Z,4.40
2022-09-12T23:29:36.398Z,4.00
2022-09-12T23:32:04.532Z,4.25
2022-09-12T23:34:31.447Z,4.05
2022-09-12T23:36:58.319Z,3.80
2022-09-12T23:39:25.283Z,3.97
2022-09-12T23:41:52.227Z,4.47
2022-09-12T23:44:19.170Z,4.80
2022-09-12T23:46:46.074Z,4.03
2022-09-12T23:49:13.025Z,4.28
2022-09-12T23:51:39.980Z,4.47
2022-09-12T23:54:06.910Z,4.38
2022-09-12T23:56:36.133Z,4.07
2022-09-12T23:59:03.038Z,4.43
